Time,TemperatureF,DewpointF,PressureIn,WindDirection,WindDirectionDegrees,WindSpeedMPH,WindSpeedGustMPH,Humidity,HourlyPrecipIn,Conditions,Clouds,dailyrainin,SolarRadiationWatts/m^2,SoftwareType,DateUTC
2013-06-28 00:02:00,69.0,69.0,-100.00,SW,231,2.0,4.0,100,0.00,,,0.37,0.000000,,2013-06-28 04:02:00,
2013-06-28 00:12:00,69.0,69.0,-100.00,SW,231,2.0,4.0,100,0.00,,,0.37,0.000000,,2013-06-28 04:12:00,
2013-06-28 00:43:00,68.0,68.0,-100.00,SE,141,2.0,4.0,100,0.00,,,0.37,0.000000,,2013-06-28 04:43:00,
2013-06-28 00:53:00,68.0,68.0,-100.00,SE,141,2.0,4.0,100,0.00,,,0.37,0.000000,,2013-06-28 04:53:00,
2013-06-28 01:01:00,68.0,68.0,-100.00,SE,141,2.0,4.0,100,0.00,,,0.37,0.000000,,2013-06-28 05:01:00,
2013-06-28 01:11:00,68.0,68.0,-100.00,SE,141,2.0,4.0,100,0.00,,,0.37,0.000000,,2013-06-28 05:11:00,
2013-06-28 01:43:00,67.0,67.0,-100.00,SSE,149,2.0,2.0,100,0.00,,,0.37,0.000000,,2013-06-28 05:43:00,
2013-06-28 01:53:00,67.0,67.0,-100.00,SSE,149,2.0,2.0,100,0.00,,,0.37,0.000000,,2013-06-28 05:53:00,
2013-06-28 02:02:00,67.0,67.0,-100.00,SSE,149,2.0,2.0,100,0.00,,,0.37,0.000000,,2013-06-28 06:02:00,
2013-06-28 02:12:00,67.0,67.0,-100.00,SSE,149,2.0,2.0,100,0.00,,,0.37,0.000000,,2013-06-28 06:12:00,
2013-06-28 02:43:00,67.0,67.0,-100.00,ESE,120,1.0,3.0,100,0.00,,,0.37,0.000000,,2013-06-28 06:43:00,
2013-06-28 02:52:00,67.0,67.0,-100.00,ESE,120,1.0,3.0,100,0.00,,,0.37,0.000000,,2013-06-28 06:52:00,
2013-06-28 03:01:00,67.0,67.0,-100.00,ESE,120,1.0,3.0,100,0.00,,,0.37,0.000000,,2013-06-28 07:01:00,
2013-06-28 03:11:00,67.0,67.0,-100.00,ESE,120,1.0,3.0,100,0.00,,,0.37,0.000000,,2013-06-28 07:11:00,
2013-06-28 03:43:00,66.0,66.0,-100.00,ESE,120,1.0,3.0,100,0.00,,,0.36,0.000000,,2013-06-28 07:43:00,
2013-06-28 03:52:00,66.0,66.0,-100.00,ESE,120,1.0,3.0,100,0.00,,,0.36,0.000000,,2013-06-28 07:52:00,
2013-06-28 04:02:00,66.0,66.0,-100.00,ESE,120,1.0,3.0,100,0.00,,,0.36,0.000000,,2013-06-28 08:02:00,
2013-06-28 04:11:00,66.0,66.0,-100.00,ESE,120,1.0,3.0,100,0.00,,,0.36,0.000000,,2013-06-28 08:11:00,
2013-06-28 04:43:00,66.0,66.0,-100.00,SE,126,0.0,2.0,100,0.01,,,0.33,0.000000,,2013-06-28 08:43:00,
2013-06-28 04:52:00,66.0,66.0,-100.00,SE,126,0.0,2.0,100,0.01,,,0.33,0.000000,,2013-06-28 08:52:00,
2013-06-28 05:02:00,66.0,66.0,-100.00,SE,126,0.0,2.0,100,0.01,,,0.33,0.000000,,2013-06-28 09:02:00,
2013-06-28 05:11:00,66.0,66.0,-100.00,SE,126,0.0,2.0,100,0.01,,,0.33,0.000000,,2013-06-28 09:11:00,
2013-06-28 05:42:00,66.0,66.0,-100.00,ESE,121,1.0,4.0,100,0.00,,,0.29,0.000000,,2013-06-28 09:42:00,
2013-06-28 05:52:00,66.0,66.0,-100.00,ESE,121,1.0,4.0,100,0.00,,,0.29,0.000000,,2013-06-28 09:52:00,
2013-06-28 06:02:00,66.0,66.0,-100.00,ESE,121,1.0,4.0,100,0.00,,,0.29,0.000000,,2013-06-28 10:02:00,
2013-06-28 06:12:00,66.0,66.0,-100.00,ESE,121,1.0,4.0,100,0.00,,,0.29,0.000000,,2013-06-28 10:12:00,
2013-06-28 06:42:00,66.0,66.0,-100.00,SE,127,1.0,2.0,100,0.00,,,0.27,0.000000,,2013-06-28 10:42:00,
2013-06-28 06:52:00,66.0,66.0,-100.00,SE,127,1.0,2.0,100,0.00,,,0.27,0.000000,,2013-06-28 10:52:00,
2013-06-28 07:02:00,66.0,66.0,-100.00,SE,127,1.0,2.0,100,0.00,,,0.27,0.000000,,2013-06-28 11:02:00,
2013-06-28 07:11:00,66.0,66.0,-100.00,SE,127,1.0,2.0,100,0.00,,,0.27,0.000000,,2013-06-28 11:11:00,
2013-06-28 07:43:00,67.0,67.0,-100.00,SW,229,1.0,4.0,100,0.00,,,0.18,12.000000,,2013-06-28 11:43:00,
2013-06-28 07:53:00,67.0,67.0,-100.00,SW,229,1.0,4.0,100,0.00,,,0.18,12.000000,,2013-06-28 11:53:00,
2013-06-28 08:02:00,67.0,67.0,-100.00,SW,229,1.0,4.0,100,0.00,,,0.18,12.000000,,2013-06-28 12:02:00,
2013-06-28 08:12:00,67.0,67.0,-100.00,SW,229,1.0,4.0,100,0.00,,,0.18,12.000000,,2013-06-28 12:12:00,
2013-06-28 08:43:00,70.0,70.0,-100.00,South,170,3.0,11.0,100,0.00,,,0.18,28.000000,,2013-06-28 12:43:00,
2013-06-28 08:52:00,70.0,70.0,-100.00,South,170,3.0,11.0,100,0.00,,,0.18,28.000000,,2013-06-28 12:52:00,
2013-06-28 09:01:00,70.0,70.0,-100.00,South,170,3.0,11.0,100,0.00,,,0.18,28.000000,,2013-06-28 13:01:00,
2013-06-28 09:11:00,70.0,70.0,-100.00,South,170,3.0,11.0,100,0.00,,,0.18,28.000000,,2013-06-28 13:11:00,
2013-06-28 09:53:00,75.0,74.0,-100.00,South,181,4.0,9.0,96,0.00,,,0.18,88.000000,,2013-06-28 13:53:00,
2013-06-28 10:02:00,75.0,74.0,-100.00,South,181,4.0,9.0,96,0.00,,,0.18,88.000000,,2013-06-28 14:02:00,
2013-06-28 10:12:00,75.0,74.0,-100.00,South,181,4.0,9.0,96,0.00,,,0.18,88.000000,,2013-06-28 14:12:00,
2013-06-28 10:44:00,79.0,70.0,-100.00,SSW,192,3.0,11.0,73,0.00,,,0.17,429.000000,,2013-06-28 14:44:00,
2013-06-28 10:53:00,79.0,70.0,-100.00,SSW,192,3.0,11.0,73,0.00,,,0.17,429.000000,,2013-06-28 14:53:00,
2013-06-28 11:02:00,79.0,70.0,-100.00,SSW,192,3.0,11.0,73,0.00,,,0.17,429.000000,,2013-06-28 15:02:00,
2013-06-28 11:11:00,79.0,70.0,-100.00,SSW,192,3.0,11.0,73,0.00,,,0.17,429.000000,,2013-06-28 15:11:00,
2013-06-28 11:43:00,81.0,70.0,-100.00,WSW,238,4.0,11.0,69,0.00,,,0.17,497.000000,,2013-06-28 15:43:00,
2013-06-28 11:52:00,81.0,70.0,-100.00,WSW,238,4.0,11.0,69,0.00,,,0.17,497.000000,,2013-06-28 15:52:00,
2013-06-28 12:02:00,81.0,70.0,-100.00,WSW,238,4.0,11.0,69,0.00,,,0.17,497.000000,,2013-06-28 16:02:00,
2013-06-28 12:11:00,81.0,70.0,-100.00,WSW,238,4.0,11.0,69,0.00,,,0.17,497.000000,,2013-06-28 16:11:00,
2013-06-28 12:44:00,83.0,67.0,-100.00,SW,235,6.0,15.0,58,0.00,,,0.17,676.000000,,2013-06-28 16:44:00,
2013-06-28 12:53:00,83.0,67.0,-100.00,SW,235,6.0,15.0,58,0.00,,,0.17,676.000000,,2013-06-28 16:53:00,
2013-06-28 13:02:00,83.0,67.0,-100.00,SW,235,6.0,15.0,58,0.00,,,0.17,676.000000,,2013-06-28 17:02:00,
2013-06-28 13:11:00,83.0,67.0,-100.00,SW,235,6.0,15.0,58,0.00,,,0.17,676.000000,,2013-06-28 17:11:00,
2013-06-28 13:44:00,84.0,65.0,-100.00,WSW,243,6.0,20.0,53,0.00,,,0.17,805.000000,,2013-06-28 17:44:00,
2013-06-28 13:52:00,84.0,65.0,-100.00,WSW,243,6.0,20.0,53,0.00,,,0.17,805.000000,,2013-06-28 17:52:00,
2013-06-28 14:02:00,84.0,65.0,-100.00,WSW,243,6.0,20.0,53,0.00,,,0.17,805.000000,,2013-06-28 18:02:00,
2013-06-28 14:11:00,84.0,65.0,-100.00,WSW,243,6.0,20.0,53,0.00,,,0.17,805.000000,,2013-06-28 18:11:00,
2013-06-28 14:52:00,84.0,64.0,-100.00,SW,235,6.0,15.0,51,0.00,,,0.17,784.000000,,2013-06-28 18:52:00,
2013-06-28 15:01:00,84.0,64.0,-100.00,SW,235,6.0,15.0,51,0.00,,,0.17,784.000000,,2013-06-28 19:01:00,
2013-06-28 15:11:00,84.0,64.0,-100.00,SW,235,6.0,15.0,51,0.00,,,0.17,784.000000,,2013-06-28 19:11:00,
2013-06-28 15:43:00,82.0,63.0,-100.00,SW,221,3.0,15.0,53,0.00,,,0.17,550.000000,,2013-06-28 19:43:00,
2013-06-28 15:53:00,82.0,63.0,-100.00,SW,221,3.0,15.0,53,0.00,,,0.17,550.000000,,2013-06-28 19:53:00,
2013-06-28 16:02:00,82.0,63.0,-100.00,SW,221,3.0,15.0,53,0.00,,,0.17,550.000000,,2013-06-28 20:02:00,
2013-06-28 16:11:00,82.0,63.0,-100.00,SW,221,3.0,15.0,53,0.00,,,0.17,550.000000,,2013-06-28 20:11:00,
2013-06-28 16:43:00,83.0,64.0,-100.00,WNW,288,7.0,14.0,53,0.00,,,0.17,642.000000,,2013-06-28 20:43:00,
2013-06-28 16:52:00,83.0,64.0,-100.00,WNW,288,7.0,14.0,53,0.00,,,0.17,642.000000,,2013-06-28 20:52:00,
2013-06-28 17:02:00,83.0,64.0,-100.00,WNW,288,7.0,14.0,53,0.00,,,0.17,642.000000,,2013-06-28 21:02:00,
2013-06-28 17:11:00,83.0,64.0,-100.00,WNW,288,7.0,14.0,53,0.00,,,0.17,642.000000,,2013-06-28 21:11:00,
2013-06-28 17:43:00,81.0,61.0,-100.00,WNW,290,6.0,13.0,51,0.00,,,0.17,502.000000,,2013-06-28 21:43:00,
2013-06-28 17:53:00,81.0,61.0,-100.00,WNW,290,6.0,13.0,51,0.00,,,0.17,502.000000,,2013-06-28 21:53:00,
2013-06-28 18:01:00,81.0,61.0,-100.00,WNW,290,6.0,13.0,51,0.00,,,0.17,502.000000,,2013-06-28 22:01:00,
2013-06-28 18:11:00,81.0,61.0,-100.00,WNW,290,6.0,13.0,51,0.00,,,0.17,502.000000,,2013-06-28 22:11:00,
2013-06-28 18:43:00,83.0,64.0,-100.00,West,267,5.0,12.0,52,0.00,,,0.17,363.000000,,2013-06-28 22:43:00,
2013-06-28 18:53:00,83.0,64.0,-100.00,West,267,5.0,12.0,52,0.00,,,0.17,363.000000,,2013-06-28 22:53:00,
2013-06-28 19:02:00,83.0,64.0,-100.00,West,267,5.0,12.0,52,0.00,,,0.17,363.000000,,2013-06-28 23:02:00,
2013-06-28 19:11:00,83.0,64.0,-100.00,West,267,5.0,12.0,52,0.00,,,0.17,363.000000,,2013-06-28 23:11:00,
2013-06-28 19:43:00,80.0,61.0,-100.00,SSW,209,4.0,14.0,53,0.00,,,0.01,297.000000,,2013-06-28 23:43:00,
2013-06-28 19:53:00,80.0,61.0,-100.00,SSW,209,4.0,14.0,53,0.00,,,0.01,297.000000,,2013-06-28 23:53:00,
2013-06-28 20:02:00,80.0,61.0,-100.00,SSW,209,4.0,14.0,53,0.00,,,0.01,297.000000,,2013-06-29 00:02:00,
2013-06-28 20:11:00,80.0,61.0,-100.00,SSW,209,4.0,14.0,53,0.00,,,0.01,297.000000,,2013-06-29 00:11:00,
2013-06-28 21:42:00,68.0,64.0,-100.00,ESE,120,1.0,4.0,87,-99.99,,,0.01,3.000000,,2013-06-29 01:42:00,
2013-06-28 21:52:00,68.0,64.0,-100.00,ESE,120,1.0,4.0,87,-99.99,,,0.01,3.000000,,2013-06-29 01:52:00,
2013-06-28 22:01:00,68.0,64.0,-100.00,ESE,120,1.0,4.0,87,-99.99,,,0.01,3.000000,,2013-06-29 02:01:00,
2013-06-28 22:11:00,68.0,64.0,-100.00,ESE,120,1.0,4.0,87,-99.99,,,0.01,3.000000,,2013-06-29 02:11:00,
2013-06-28 22:41:00,67.0,65.0,-100.00,SE,131,1.0,4.0,93,0.00,,,0.01,0.000000,,2013-06-29 02:41:00,
2013-06-28 22:51:00,67.0,65.0,-100.00,SE,131,1.0,4.0,93,0.00,,,0.01,0.000000,,2013-06-29 02:51:00,
2013-06-28 23:01:00,67.0,65.0,-100.00,SE,131,1.0,4.0,93,0.00,,,0.01,0.000000,,2013-06-29 03:01:00,
2013-06-28 23:11:00,67.0,65.0,-100.00,SE,131,1.0,4.0,93,0.00,,,0.01,0.000000,,2013-06-29 03:11:00,
2013-06-28 23:41:00,65.0,64.0,-100.00,ESE,103,1.0,3.0,97,0.00,,,0.01,0.000000,,2013-06-29 03:41:00,
2013-06-28 23:51:00,65.0,64.0,-100.00,ESE,103,1.0,3.0,97,0.00,,,0.01,0.000000,,2013-06-29 03:51:00,